CW1733 Weather Reports


Display with metric or nautical units.
time (UTC)temp
F
wind
direction
speed
MPH
gust
MPH
rain 1hr
in
rain 24hr
in
rain mn
in
humidity
%
barometer
mb
20210308000819 65 30 3.0 8.0 0.00 0.00 0.00 48 1022.0
20210308000137 66 49 2.0 5.0 0.00 0.00 0.00 48 1021.6
20210307234552 66 44 1.0 5.0 0.00 0.00 0.00 48 1021.6
20210307234031 66 73 3.0 10.0 0.00 0.00 0.00 48 1021.4
20210307233307 67 36 1.0 5.0 0.00 0.00 0.00 48 1021.3
20210307232525 68 50 6.0 13.0 0.00 0.00 0.00 47 1021.2
20210307231103 68 43 3.0 8.0 0.00 0.00 0.00 47 1021.0
20210307230133 68 12 2.0 8.0 0.00 0.01 0.00 47 1020.9
20210307225624 69 354 6.0 10.0 0.00 0.01 0.00 46 1020.7
20210307224045 69 36 2.0 5.0 0.00 0.02 0.00 44 1020.5
20210307223535 70 35 4.0 13.0 0.00 0.04 0.00 44 1020.4
20210307223056 70 57 3.0 8.0 0.00 0.11 0.00 43 1020.1
20210307221537 70 28 1.0 8.0 0.00 0.14 0.00 42 1020.0
20210307220536 70 46 5.0 10.0 0.00 0.14 0.00 42 1019.8
20210307215805 71 53 6.0 17.0 0.00 0.14 0.00 40 1019.6
20210307214550 71 301 2.0 5.0 0.00 0.14 0.00 41 1019.6
20210307213751 71 48 4.0 8.0 0.00 0.14 0.00 41 1019.5
20210307213136 71 27 4.0 10.0 0.00 0.14 0.00 41 1019.6
20210307211552 71 42 3.0 10.0 0.00 0.14 0.00 41 1019.3
20210307210522 72 36 2.0 5.0 0.00 0.14 0.00 40 1019.3
20210307205844 71 344 3.0 10.0 0.00 0.14 0.00 40 1019.3
20210307204533 71 48 2.0 8.0 0.00 0.14 0.00 40 1019.3
20210307203530 71 350 3.0 5.0 0.00 0.14 0.00 40 1019.3
20210307202730 73 10 3.0 8.0 0.00 0.14 0.00 40 1019.5
20210307201550 73 32 1.0 8.0 0.00 0.14 0.00 39 1019.5
20210307200533 72 337 4.0 10.0 0.00 0.14 0.00 40 1019.5
20210307200023 72 278 3.0 8.0 0.00 0.14 0.00 39 1019.3
20210307194540 72 314 3.0 15.0 0.00 0.14 0.00 40 1019.6
20210307193554 72 37 3.0 5.0 0.00 0.14 0.00 39 1019.5
20210307192800 72 37 3.0 10.0 0.00 0.14 0.00 46 1019.3
20210307191532 73 9 3.0 8.0 0.00 0.14 0.00 44 1019.6
20210307190545 71 348 2.0 8.0 0.00 0.14 0.00 40 1019.6
20210307185753 71 23 3.0 10.0 0.00 0.14 0.00 41 1019.7
20210307184527 71 30 2.0 8.0 0.00 0.14 0.00 42 1019.6
20210307183658 71 360 3.0 8.0 0.00 0.14 0.00 41 1019.6
20210307182819 72 3 4.0 15.0 0.00 0.14 0.00 49 1019.7
20210307181554 73 17 0.0 8.0 0.00 0.14 0.00 49 1019.6
20210307180531 73 39 3.0 5.0 0.00 0.14 0.00 49 1019.6
20210307175753 71 358 1.0 5.0 0.00 0.14 0.00 43 1019.9
20210307174545 72 46 3.0 8.0 0.00 0.14 0.00 49 1019.8
20210307173624 72 14 2.0 8.0 0.00 0.14 0.00 49 1020.0
20210307173047 72 352 3.0 8.0 0.00 0.14 0.00 51 1020.2
20210307171548 72 338 3.0 10.0 0.00 0.14 0.00 50 1020.3
20210307171028 72 27 2.0 8.0 0.00 0.14 0.00 51 1020.2
20210307170209 70 326 2.0 8.0 0.00 0.14 0.00 51 1020.4
20210307165550 68 34 2.0 8.0 0.00 0.14 0.00 49 1020.6
20210307164043 69 19 1.0 5.0 0.00 0.14 0.00 50 1020.5
20210307163058 67 28 2.0 10.0 0.00 0.14 0.00 50 1020.6
20210307162244 67 42 2.0 5.0 0.00 0.14 0.00 50 1020.6
20210307161046 68 303 5.0 10.0 0.00 0.14 0.00 49 1020.6
20210307160536 68 11 3.0 10.0 0.00 0.14 0.00 49 1020.6
20210307155926 67 4 3.0 10.0 0.00 0.14 0.00 50 1020.5
20210307154532 67 336 2.0 5.0 0.00 0.14 0.00 50 1020.5
20210307153530 66 12 3.0 8.0 0.00 0.14 0.00 51 1020.4
20210307152822 66 21 3.0 8.0 0.00 0.14 0.00 51 1020.3
20210307151550 66 4 2.0 10.0 0.00 0.14 0.00 51 1020.3
20210307150046 65 47 1.0 2.0 0.00 0.14 0.00 53 1020.3
20210307145800 65 75 4.0 13.0 0.00 0.14 0.00 53 1020.3
20210307144540 64 34 3.0 5.0 0.00 0.14 0.00 53 1020.3
20210307143536 64 4 3.0 5.0 0.00 0.14 0.00 55 1019.9
20210307142900 63 347 3.0 5.0 0.00 0.14 0.00 56 1019.9
20210307141554 63 8 4.0 10.0 0.00 0.14 0.00 57 1019.7
20210307140532 63 33 5.0 8.0 0.00 0.14 0.00 59 1019.6
20210307140053 63 344 1.0 5.0 0.00 0.14 0.00 60 1019.6
20210307135353 62 5 1.0 8.0 0.00 0.14 0.00 61 1019.5
20210307134036 61 3 4.0 13.0 0.00 0.14 0.00 63 1019.6
20210307133146 60 12 1.0 5.0 0.00 0.14 0.00 66 1019.1
20210307132436 59 11 3.0 5.0 0.00 0.14 0.00 68 1018.9
20210307131037 59 7 2.0 8.0 0.00 0.14 0.00 71 1018.8
20210307130218 59 333 1.0 8.0 0.00 0.14 0.00 72 1018.6
20210307125408 60 330 2.0 8.0 0.00 0.14 0.00 74 1018.3
20210307124026 60 351 2.0 5.0 0.00 0.14 0.00 74 1018.0
20210307123056 60 306 1.0 5.0 0.00 0.14 0.00 75 1018.0
20210307122621 60 52 1.0 5.0 0.00 0.14 0.00 75 1017.7
20210307121025 60 33 1.0 2.0 0.00 0.14 0.00 77 1017.5
20210307120049 60 344 3.0 15.0 0.00 0.14 0.00 78 1017.2
20210307115301 61 314 1.0 5.0 0.00 0.14 0.00 80 1017.0
20210307114041 61 8 1.0 5.0 0.00 0.14 0.00 82 1016.9
20210307113154 61 331 1.0 5.0 0.00 0.14 0.00 83 1016.8
20210307112606 61 360 2.0 5.0 0.00 0.14 0.00 86 1016.6
20210307111032 61 358 0.0 8.0 0.00 0.14 0.00 91 1016.2
20210307110352 61 0.0 0.0 0.00 0.14 0.00 94 1016.1
20210307105659 61 293 1.0 2.0 0.00 0.14 0.00 94 1015.9
20210307104109 61 323 1.0 2.0 0.00 0.14 0.00 94 1015.8
20210307103055 61 283 0.0 2.0 0.00 0.14 0.00 92 1015.5
20210307102307 61 359 0.0 2.0 0.00 0.14 0.00 91 1015.4
20210307101111 61 15 1.0 2.0 0.00 0.14 0.00 89 1015.3
20210307100254 61 0.0 0.0 0.00 0.14 0.00 88 1015.2
20210307100032 61 352 1.0 8.0 0.00 0.14 0.00 88 1015.1
20210307094528 61 0.0 0.0 0.00 0.14 0.00 86 1014.9
20210307093532 61 59 0.0 2.0 0.00 0.14 0.00 82 1014.7
20210307092835 61 45 2.0 5.0 0.00 0.14 0.00 77 1014.5
20210307091546 61 329 1.0 5.0 0.00 0.14 0.00 76 1014.5
20210307090536 62 359 1.0 5.0 0.00 0.14 0.00 76 1014.6
20210307085844 62 40 1.0 2.0 0.00 0.14 0.00 78 1014.3
20210307084524 62 324 1.0 5.0 0.00 0.14 0.00 80 1014.3
20210307083533 62 338 1.0 5.0 0.00 0.14 0.00 82 1014.4
20210307082859 62 336 0.0 2.0 0.00 0.14 0.00 83 1014.2
20210307080050 64 9 1.0 8.0 0.00 0.14 0.00 88 1014.2
20210307075251 64 264 0.0 2.0 0.00 0.14 0.00 89 1014.2
20210307074033 64 333 0.0 2.0 0.00 0.14 0.00 89 1014.2
20210307073056 64 49 0.0 2.0 0.00 0.14 0.00 89 1014.2
20210307072240 64 343 0.0 2.0 0.00 0.14 0.00 90 1014.2
20210307071023 64 21 1.0 5.0 0.00 0.14 0.00 90 1014.3
20210307070038 64 348 0.0 2.0 0.00 0.14 0.00 90 1014.2
20210307065404 64 10 0.0 2.0 0.00 0.14 0.00 89 1014.2
20210307064025 64 345 0.0 2.0 0.00 0.14 0.00 89 1014.5
20210307063028 64 0.0 0.0 0.00 0.14 0.00 86 1014.2
20210307062231 64 316 0.0 2.0 0.00 0.14 0.00 88 1014.2
20210307061026 64 0.0 0.0 0.00 0.14 0.00 90 1014.2
20210307060046 64 353 0.0 2.0 0.00 0.14 0.00 90 1014.5
20210307055138 64 294 0.0 2.0 0.00 0.14 0.00 89 1014.3
20210307054031 64 321 0.0 2.0 0.00 0.14 0.00 89 1014.4
20210307053036 64 24 0.0 2.0 0.00 0.14 0.00 89 1014.5
20210307052237 64 356 1.0 2.0 0.00 0.14 0.00 90 1014.3
20210307051047 65 352 1.0 8.0 0.00 0.14 0.00 92 1014.3
20210307050039 65 31 1.0 5.0 0.00 0.14 0.00 93 1014.5
20210307045118 65 46 0.0 5.0 0.00 0.14 0.14 93 1014.4
20210307044044 65 343 0.0 2.0 0.00 0.14 0.14 89 1014.4
20210307043031 65 50 0.0 2.0 0.00 0.14 0.14 83 1014.5
20210307042849 65 74 1.0 8.0 0.00 0.14 0.14 81 1014.5
20210307041621 64 0.0 0.0 0.00 0.14 0.14 79 1014.7
20210307040527 64 0.0 0.0 0.00 0.14 0.14 79 1014.5
20210307040055 65 0.0 0.0 0.00 0.14 0.14 79 1014.5
20210307035323 65 345 0.0 2.0 0.00 0.14 0.14 80 1014.6
20210307034049 65 59 0.0 2.0 0.00 0.14 0.14 85 1014.5
20210307033213 65 42 1.0 5.0 0.00 0.14 0.14 89 1014.5
20210307032403 65 49 2.0 5.0 0.00 0.14 0.14 95 1014.4
20210307031053 66 50 0.0 2.0 0.00 0.14 0.14 98 1014.7
20210307030057 66 16 1.0 5.0 0.00 0.14 0.14 99 1014.5
20210307025539 66 25 2.0 5.0 0.00 0.14 0.14 99 1014.4
20210307024055 66 42 0.0 2.0 0.00 0.14 0.14 99 1014.4
20210307023211 66 41 1.0 5.0 0.00 0.14 0.14 99 1014.5
20210307022427 66 46 0.0 2.0 0.00 0.14 0.14 99 1014.5
20210307021038 66 28 1.0 5.0 0.00 0.14 0.14 99 1014.2
20210307020153 66 53 2.0 8.0 0.00 0.14 0.14 99 1014.2
20210307015351 65 59 3.0 10.0 0.00 0.14 0.14 99 1014.0
20210307014032 65 78 1.0 5.0 0.00 0.14 0.14 99 1014.0
20210307013030 65 53 3.0 5.0 0.00 0.14 0.14 99 1013.7
20210307012134 65 40 2.0 8.0 0.00 0.14 0.14 99 1013.6
20210307011026 66 79 0.0 2.0 0.00 0.14 0.14 99 1013.6
20210307010143 66 41 2.0 5.0 0.00 0.14 0.14 99 1013.8
20210307005418 66 41 0.0 2.0 0.00 0.14 0.14 99 1013.7
20210307004035 66 22 1.0 5.0 0.00 0.14 0.14 99 1013.5
20210307003036 66 351 2.0 5.0 0.00 0.14 0.14 99 1013.3
20210307002402 66 32 2.0 5.0 0.00 0.14 0.14 99 1013.3
20210307001113 66 7 0.0 2.0 0.00 0.14 0.14 99 1013.3